sensor_id;sensor_type;location;lat;lon;timestamp;temperature;humidity
27164;DHT22;14685;50.618;7.024;2022-09-09T00:04:00;19.60;99.90
27164;DHT22;14685;50.618;7.024;2022-09-09T00:06:35;19.70;99.90
27164;DHT22;14685;50.618;7.024;2022-09-09T00:09:17;19.70;99.90
27164;DHT22;14685;50.618;7.024;2022-09-09T00:15:02;19.70;99.90
27164;DHT22;14685;50.618;7.024;2022-09-09T00:18:05;19.70;99.90
27164;DHT22;14685;50.618;7.024;2022-09-09T00:20:58;19.80;99.90
27164;DHT22;14685;50.618;7.024;2022-09-09T00:23:55;19.80;99.90
27164;DHT22;14685;50.618;7.024;2022-09-09T00:31:47;20.10;99.90
27164;DHT22;14685;50.618;7.024;2022-09-09T00:34:18;20.00;99.90
27164;DHT22;14685;50.618;7.024;2022-09-09T00:36:49;20.10;99.90
27164;DHT22;14685;50.618;7.024;2022-09-09T00:39:41;20.10;99.90
27164;DHT22;14685;50.618;7.024;2022-09-09T00:42:20;20.10;99.90
27164;DHT22;14685;50.618;7.024;2022-09-09T00:47:45;20.20;99.90
27164;DHT22;14685;50.618;7.024;2022-09-09T00:53:37;20.20;99.90
27164;DHT22;14685;50.618;7.024;2022-09-09T01:01:37;20.10;99.90
27164;DHT22;14685;50.618;7.024;2022-09-09T01:04:13;20.10;99.90
27164;DHT22;14685;50.618;7.024;2022-09-09T01:06:43;20.00;99.90
27164;DHT22;14685;50.618;7.024;2022-09-09T01:12:15;20.10;99.90
27164;DHT22;14685;50.618;7.024;2022-09-09T01:14:55;20.10;99.90
27164;DHT22;14685;50.618;7.024;2022-09-09T01:17:28;20.10;99.90
27164;DHT22;14685;50.618;7.024;2022-09-09T01:26:42;20.20;99.90
27164;DHT22;14685;50.618;7.024;2022-09-09T01:28:46;20.20;99.90
27164;DHT22;14685;50.618;7.024;2022-09-09T01:31:18;20.20;99.90
27164;DHT22;14685;50.618;7.024;2022-09-09T01:33:46;20.20;99.90
27164;DHT22;14685;50.618;7.024;2022-09-09T01:36:24;20.10;99.90
27164;DHT22;14685;50.618;7.024;2022-09-09T01:38:54;20.10;99.90
27164;DHT22;14685;50.618;7.024;2022-09-09T01:41:22;20.10;99.90
27164;DHT22;14685;50.618;7.024;2022-09-09T01:43:49;20.20;99.90
27164;DHT22;14685;50.618;7.024;2022-09-09T01:46:21;20.10;99.90
27164;DHT22;14685;50.618;7.024;2022-09-09T01:48:51;20.10;99.90
27164;DHT22;14685;50.618;7.024;2022-09-09T01:51:19;20.10;99.90
27164;DHT22;14685;50.618;7.024;2022-09-09T01:53:46;20.10;99.90
27164;DHT22;14685;50.618;7.024;2022-09-09T01:56:29;20.00;99.90
27164;DHT22;14685;50.618;7.024;2022-09-09T02:02:09;19.90;99.90
27164;DHT22;14685;50.618;7.024;2022-09-09T02:04:45;19.80;99.90
27164;DHT22;14685;50.618;7.024;2022-09-09T02:10:03;19.80;99.90
27164;DHT22;14685;50.618;7.024;2022-09-09T02:12:32;19.80;99.90
27164;DHT22;14685;50.618;7.024;2022-09-09T02:15:11;19.80;99.90
27164;DHT22;14685;50.618;7.024;2022-09-09T02:17:42;19.80;99.90
27164;DHT22;14685;50.618;7.024;2022-09-09T02:20:12;19.80;99.90
27164;DHT22;14685;50.618;7.024;2022-09-09T02:22:43;19.80;99.90
27164;DHT22;14685;50.618;7.024;2022-09-09T02:25:15;19.80;99.90
27164;DHT22;14685;50.618;7.024;2022-09-09T02:27:45;19.90;99.90
27164;DHT22;14685;50.618;7.024;2022-09-09T02:30:14;19.90;99.90
27164;DHT22;14685;50.618;7.024;2022-09-09T02:32:43;19.90;99.90
27164;DHT22;14685;50.618;7.024;2022-09-09T02:35:19;19.80;99.90
27164;DHT22;14685;50.618;7.024;2022-09-09T02:37:49;19.90;99.90
27164;DHT22;14685;50.618;7.024;2022-09-09T02:40:17;19.90;99.90
27164;DHT22;14685;50.618;7.024;2022-09-09T02:42:48;19.90;99.90
27164;DHT22;14685;50.618;7.024;2022-09-09T02:45:19;20.00;99.90
27164;DHT22;14685;50.618;7.024;2022-09-09T02:48:09;19.90;99.90
27164;DHT22;14685;50.618;7.024;2022-09-09T02:50:52;19.90;99.90
27164;DHT22;14685;50.618;7.024;2022-09-09T02:54:01;19.80;99.90
27164;DHT22;14685;50.618;7.024;2022-09-09T02:56:25;19.70;99.90
27164;DHT22;14685;50.618;7.024;2022-09-09T02:58:56;19.60;99.90
27164;DHT22;14685;50.618;7.024;2022-09-09T03:01:23;19.70;99.90
27164;DHT22;14685;50.618;7.024;2022-09-09T03:03:50;19.70;99.90
27164;DHT22;14685;50.618;7.024;2022-09-09T03:06:17;19.70;99.90
27164;DHT22;14685;50.618;7.024;2022-09-09T03:08:43;19.70;99.90
27164;DHT22;14685;50.618;7.024;2022-09-09T03:11:16;19.80;99.90
27164;DHT22;14685;50.618;7.024;2022-09-09T03:13:43;19.70;99.90
27164;DHT22;14685;50.618;7.024;2022-09-09T03:16:10;19.80;99.90
27164;DHT22;14685;50.618;7.024;2022-09-09T03:18:37;19.80;99.90
27164;DHT22;14685;50.618;7.024;2022-09-09T03:21:04;19.80;99.90
27164;DHT22;14685;50.618;7.024;2022-09-09T03:23:31;19.80;99.90
27164;DHT22;14685;50.618;7.024;2022-09-09T03:25:58;19.90;99.90
27164;DHT22;14685;50.618;7.024;2022-09-09T03:28:25;19.90;99.90
27164;DHT22;14685;50.618;7.024;2022-09-09T03:30:59;19.90;99.90
27164;DHT22;14685;50.618;7.024;2022-09-09T03:33:26;19.90;99.90
27164;DHT22;14685;50.618;7.024;2022-09-09T03:35:54;19.90;99.90
27164;DHT22;14685;50.618;7.024;2022-09-09T03:38:24;19.90;99.90
27164;DHT22;14685;50.618;7.024;2022-09-09T03:40:52;19.90;99.90
27164;DHT22;14685;50.618;7.024;2022-09-09T03:43:26;19.90;99.90
27164;DHT22;14685;50.618;7.024;2022-09-09T03:45:58;19.90;99.90
27164;DHT22;14685;50.618;7.024;2022-09-09T03:48:26;19.80;99.90
27164;DHT22;14685;50.618;7.024;2022-09-09T03:50:55;19.80;99.90
27164;DHT22;14685;50.618;7.024;2022-09-09T03:53:27;19.80;99.90
27164;DHT22;14685;50.618;7.024;2022-09-09T03:55:56;19.80;99.90
27164;DHT22;14685;50.618;7.024;2022-09-09T03:58:26;19.70;99.90
27164;DHT22;14685;50.618;7.024;2022-09-09T04:01:01;19.70;99.90
27164;DHT22;14685;50.618;7.024;2022-09-09T04:03:29;19.80;99.90
27164;DHT22;14685;50.618;7.024;2022-09-09T04:05:59;19.80;99.90
27164;DHT22;14685;50.618;7.024;2022-09-09T04:08:27;19.70;99.90
27164;DHT22;14685;50.618;7.024;2022-09-09T04:10:54;20.00;99.90
27164;DHT22;14685;50.618;7.024;2022-09-09T04:13:25;20.00;99.90
27164;DHT22;14685;50.618;7.024;2022-09-09T04:15:57;19.90;99.90
27164;DHT22;14685;50.618;7.024;2022-09-09T04:18:25;19.90;99.90
27164;DHT22;14685;50.618;7.024;2022-09-09T04:20:52;19.90;99.90
27164;DHT22;14685;50.618;7.024;2022-09-09T04:23:19;19.90;99.90
27164;DHT22;14685;50.618;7.024;2022-09-09T04:25:48;19.80;99.90
27164;DHT22;14685;50.618;7.024;2022-09-09T04:28:17;20.00;99.90
27164;DHT22;14685;50.618;7.024;2022-09-09T04:30:45;19.90;99.90
27164;DHT22;14685;50.618;7.024;2022-09-09T04:33:13;19.90;99.90
27164;DHT22;14685;50.618;7.024;2022-09-09T04:35:47;20.00;99.90
27164;DHT22;14685;50.618;7.024;2022-09-09T04:38:16;20.00;99.90
27164;DHT22;14685;50.618;7.024;2022-09-09T04:40:46;19.90;99.90
27164;DHT22;14685;50.618;7.024;2022-09-09T04:43:13;20.00;99.90
27164;DHT22;14685;50.618;7.024;2022-09-09T04:45:46;20.00;99.90
27164;DHT22;14685;50.618;7.024;2022-09-09T04:48:14;20.00;99.90
27164;DHT22;14685;50.618;7.024;2022-09-09T04:50:41;19.90;99.90
27164;DHT22;14685;50.618;7.024;2022-09-09T04:53:08;20.00;99.90
27164;DHT22;14685;50.618;7.024;2022-09-09T04:55:37;19.90;99.90
27164;DHT22;14685;50.618;7.024;2022-09-09T04:58:05;19.90;99.90
27164;DHT22;14685;50.618;7.024;2022-09-09T05:00:37;19.90;99.90
27164;DHT22;14685;50.618;7.024;2022-09-09T05:03:12;19.90;99.90
27164;DHT22;14685;50.618;7.024;2022-09-09T05:05:39;19.90;99.90
27164;DHT22;14685;50.618;7.024;2022-09-09T05:08:08;19.90;99.90
27164;DHT22;14685;50.618;7.024;2022-09-09T05:10:39;19.80;99.90
27164;DHT22;14685;50.618;7.024;2022-09-09T05:13:06;19.80;99.90
27164;DHT22;14685;50.618;7.024;2022-09-09T05:15:34;19.90;99.90
27164;DHT22;14685;50.618;7.024;2022-09-09T05:18:04;19.80;99.90
27164;DHT22;14685;50.618;7.024;2022-09-09T05:20:31;19.70;99.90
27164;DHT22;14685;50.618;7.024;2022-09-09T05:23:01;19.70;99.90
27164;DHT22;14685;50.618;7.024;2022-09-09T05:25:28;19.70;99.90
27164;DHT22;14685;50.618;7.024;2022-09-09T05:27:55;19.80;99.90
27164;DHT22;14685;50.618;7.024;2022-09-09T05:30:22;19.80;99.90
27164;DHT22;14685;50.618;7.024;2022-09-09T05:32:51;19.80;99.90
27164;DHT22;14685;50.618;7.024;2022-09-09T05:35:19;19.80;99.90
27164;DHT22;14685;50.618;7.024;2022-09-09T05:37:48;19.80;99.90
27164;DHT22;14685;50.618;7.024;2022-09-09T05:40:15;19.80;99.90
27164;DHT22;14685;50.618;7.024;2022-09-09T05:42:42;19.90;99.90
27164;DHT22;14685;50.618;7.024;2022-09-09T05:45:09;19.90;99.90
27164;DHT22;14685;50.618;7.024;2022-09-09T05:47:36;19.90;99.90
27164;DHT22;14685;50.618;7.024;2022-09-09T05:50:04;19.90;99.90
27164;DHT22;14685;50.618;7.024;2022-09-09T05:52:31;19.90;99.90
27164;DHT22;14685;50.618;7.024;2022-09-09T05:54:58;19.80;99.90
27164;DHT22;14685;50.618;7.024;2022-09-09T05:57:26;19.80;99.90
27164;DHT22;14685;50.618;7.024;2022-09-09T05:59:54;19.80;99.90
27164;DHT22;14685;50.618;7.024;2022-09-09T06:02:21;19.70;99.90
27164;DHT22;14685;50.618;7.024;2022-09-09T06:04:48;19.60;99.90
27164;DHT22;14685;50.618;7.024;2022-09-09T06:07:15;19.60;99.90
27164;DHT22;14685;50.618;7.024;2022-09-09T06:09:44;19.60;99.90
27164;DHT22;14685;50.618;7.024;2022-09-09T06:12:11;19.60;99.90
27164;DHT22;14685;50.618;7.024;2022-09-09T06:14:39;19.60;99.90
27164;DHT22;14685;50.618;7.024;2022-09-09T06:17:13;19.70;99.90
27164;DHT22;14685;50.618;7.024;2022-09-09T06:19:40;19.80;99.90
27164;DHT22;14685;50.618;7.024;2022-09-09T06:22:06;20.00;99.90
27164;DHT22;14685;50.618;7.024;2022-09-09T06:24:33;20.00;99.90
27164;DHT22;14685;50.618;7.024;2022-09-09T06:27:01;20.10;99.90
27164;DHT22;14685;50.618;7.024;2022-09-09T06:29:28;20.20;99.90
27164;DHT22;14685;50.618;7.024;2022-09-09T06:31:55;20.40;99.90
27164;DHT22;14685;50.618;7.024;2022-09-09T06:34:24;20.60;99.90
27164;DHT22;14685;50.618;7.024;2022-09-09T06:36:50;20.60;99.90
27164;DHT22;14685;50.618;7.024;2022-09-09T06:39:19;20.70;99.90
27164;DHT22;14685;50.618;7.024;2022-09-09T06:41:46;20.80;99.90
27164;DHT22;14685;50.618;7.024;2022-09-09T06:44:14;20.90;99.90
27164;DHT22;14685;50.618;7.024;2022-09-09T06:46:43;21.10;99.90
27164;DHT22;14685;50.618;7.024;2022-09-09T06:49:12;21.20;99.90
27164;DHT22;14685;50.618;7.024;2022-09-09T06:51:39;21.40;99.90
27164;DHT22;14685;50.618;7.024;2022-09-09T06:54:11;21.50;99.90
27164;DHT22;14685;50.618;7.024;2022-09-09T06:56:41;21.60;99.90
27164;DHT22;14685;50.618;7.024;2022-09-09T06:59:09;21.70;99.90
27164;DHT22;14685;50.618;7.024;2022-09-09T07:01:38;21.80;99.90
27164;DHT22;14685;50.618;7.024;2022-09-09T07:04:07;21.90;99.90
27164;DHT22;14685;50.618;7.024;2022-09-09T07:06:38;22.00;99.90
27164;DHT22;14685;50.618;7.024;2022-09-09T07:09:07;22.20;99.90
27164;DHT22;14685;50.618;7.024;2022-09-09T07:11:46;22.30;99.90
27164;DHT22;14685;50.618;7.024;2022-09-09T07:14:14;22.50;99.90
27164;DHT22;14685;50.618;7.024;2022-09-09T07:16:42;22.60;99.90
27164;DHT22;14685;50.618;7.024;2022-09-09T07:19:10;22.80;99.90
27164;DHT22;14685;50.618;7.024;2022-09-09T07:21:38;22.70;99.90
27164;DHT22;14685;50.618;7.024;2022-09-09T07:24:07;22.80;99.90
27164;DHT22;14685;50.618;7.024;2022-09-09T07:26:38;22.90;99.90
27164;DHT22;14685;50.618;7.024;2022-09-09T07:29:06;22.90;99.90
27164;DHT22;14685;50.618;7.024;2022-09-09T07:31:35;23.00;99.90
27164;DHT22;14685;50.618;7.024;2022-09-09T07:34:03;23.10;99.90
27164;DHT22;14685;50.618;7.024;2022-09-09T07:36:33;23.00;99.90
27164;DHT22;14685;50.618;7.024;2022-09-09T07:39:03;23.00;99.90
27164;DHT22;14685;50.618;7.024;2022-09-09T07:41:38;22.90;99.90
27164;DHT22;14685;50.618;7.024;2022-09-09T07:44:07;23.00;99.90
27164;DHT22;14685;50.618;7.024;2022-09-09T07:46:35;23.00;99.90
27164;DHT22;14685;50.618;7.024;2022-09-09T07:49:02;22.90;99.90
27164;DHT22;14685;50.618;7.024;2022-09-09T07:51:35;22.80;99.90
27164;DHT22;14685;50.618;7.024;2022-09-09T07:54:10;22.70;99.90
27164;DHT22;14685;50.618;7.024;2022-09-09T07:56:43;22.60;99.90
27164;DHT22;14685;50.618;7.024;2022-09-09T07:59:10;22.50;99.90
27164;DHT22;14685;50.618;7.024;2022-09-09T08:01:50;22.50;99.90
27164;DHT22;14685;50.618;7.024;2022-09-09T08:04:22;22.30;99.90
27164;DHT22;14685;50.618;7.024;2022-09-09T08:06:55;22.30;99.90
27164;DHT22;14685;50.618;7.024;2022-09-09T08:09:24;22.30;99.90
27164;DHT22;14685;50.618;7.024;2022-09-09T08:11:53;22.30;99.90
27164;DHT22;14685;50.618;7.024;2022-09-09T08:14:23;22.20;99.90
27164;DHT22;14685;50.618;7.024;2022-09-09T08:16:51;22.10;99.90
27164;DHT22;14685;50.618;7.024;2022-09-09T08:19:21;22.10;99.90
27164;DHT22;14685;50.618;7.024;2022-09-09T08:21:48;22.10;99.90
27164;DHT22;14685;50.618;7.024;2022-09-09T08:24:16;22.10;99.90
27164;DHT22;14685;50.618;7.024;2022-09-09T08:26:46;22.20;99.90
27164;DHT22;14685;50.618;7.024;2022-09-09T08:29:18;22.20;99.90
27164;DHT22;14685;50.618;7.024;2022-09-09T08:31:50;22.30;99.90
27164;DHT22;14685;50.618;7.024;2022-09-09T08:34:18;22.30;99.90
27164;DHT22;14685;50.618;7.024;2022-09-09T08:36:48;22.30;99.90
27164;DHT22;14685;50.618;7.024;2022-09-09T08:39:18;22.30;99.90
27164;DHT22;14685;50.618;7.024;2022-09-09T08:45:24;22.20;99.90
27164;DHT22;14685;50.618;7.024;2022-09-09T08:48:20;22.40;99.90
27164;DHT22;14685;50.618;7.024;2022-09-09T08:50:52;22.30;99.90
27164;DHT22;14685;50.618;7.024;2022-09-09T08:53:28;22.30;99.90
27164;DHT22;14685;50.618;7.024;2022-09-09T08:56:02;22.40;99.90
27164;DHT22;14685;50.618;7.024;2022-09-09T08:58:34;22.40;99.90
27164;DHT22;14685;50.618;7.024;2022-09-09T09:03:51;22.40;99.90
27164;DHT22;14685;50.618;7.024;2022-09-09T09:09:11;22.50;99.90
27164;DHT22;14685;50.618;7.024;2022-09-09T09:11:45;22.50;99.90
27164;DHT22;14685;50.618;7.024;2022-09-09T09:14:24;22.50;99.90
27164;DHT22;14685;50.618;7.024;2022-09-09T09:16:59;22.50;99.90
27164;DHT22;14685;50.618;7.024;2022-09-09T09:19:27;22.50;99.90
27164;DHT22;14685;50.618;7.024;2022-09-09T09:22:17;22.60;99.90
27164;DHT22;14685;50.618;7.024;2022-09-09T09:24:55;22.70;99.90
27164;DHT22;14685;50.618;7.024;2022-09-09T09:27:35;22.80;99.90
27164;DHT22;14685;50.618;7.024;2022-09-09T09:30:19;22.80;99.90
27164;DHT22;14685;50.618;7.024;2022-09-09T09:33:02;22.80;99.90
27164;DHT22;14685;50.618;7.024;2022-09-09T09:35:30;22.80;99.90
27164;DHT22;14685;50.618;7.024;2022-09-09T09:37:57;22.70;99.90
27164;DHT22;14685;50.618;7.024;2022-09-09T09:40:57;22.70;99.90
27164;DHT22;14685;50.618;7.024;2022-09-09T09:43:35;22.60;99.90
27164;DHT22;14685;50.618;7.024;2022-09-09T09:46:17;22.60;99.90
27164;DHT22;14685;50.618;7.024;2022-09-09T09:48:56;22.70;99.90
27164;DHT22;14685;50.618;7.024;2022-09-09T09:51:24;22.60;99.90
27164;DHT22;14685;50.618;7.024;2022-09-09T09:54:22;22.70;99.90
27164;DHT22;14685;50.618;7.024;2022-09-09T09:56:51;22.90;99.90
27164;DHT22;14685;50.618;7.024;2022-09-09T10:02:23;23.20;99.90
27164;DHT22;14685;50.618;7.024;2022-09-09T10:05:30;23.30;99.90
27164;DHT22;14685;50.618;7.024;2022-09-09T10:08:15;23.40;99.90
27164;DHT22;14685;50.618;7.024;2022-09-09T10:13:27;23.70;99.90
27164;DHT22;14685;50.618;7.024;2022-09-09T10:21:53;23.80;99.90
27164;DHT22;14685;50.618;7.024;2022-09-09T10:27:27;23.80;99.90
27164;DHT22;14685;50.618;7.024;2022-09-09T10:33:56;24.00;99.90
27164;DHT22;14685;50.618;7.024;2022-09-09T10:36:21;24.20;99.90
27164;DHT22;14685;50.618;7.024;2022-09-09T10:39:05;24.10;99.90
27164;DHT22;14685;50.618;7.024;2022-09-09T10:51:26;23.60;99.90
27164;DHT22;14685;50.618;7.024;2022-09-09T10:53:43;23.60;99.90
27164;DHT22;14685;50.618;7.024;2022-09-09T10:56:16;23.60;99.90
27164;DHT22;14685;50.618;7.024;2022-09-09T11:04:03;23.60;99.90
27164;DHT22;14685;50.618;7.024;2022-09-09T11:06:37;23.60;99.90
27164;DHT22;14685;50.618;7.024;2022-09-09T11:09:05;23.70;99.90
27164;DHT22;14685;50.618;7.024;2022-09-09T11:11:44;23.80;99.90
27164;DHT22;14685;50.618;7.024;2022-09-09T11:17:10;23.90;99.90
27164;DHT22;14685;50.618;7.024;2022-09-09T11:19:43;24.00;99.90
27164;DHT22;14685;50.618;7.024;2022-09-09T11:22:27;24.10;99.90
27164;DHT22;14685;50.618;7.024;2022-09-09T11:25:06;24.20;99.90
27164;DHT22;14685;50.618;7.024;2022-09-09T11:38:40;24.40;99.90
27164;DHT22;14685;50.618;7.024;2022-09-09T11:41:10;24.50;99.90
27164;DHT22;14685;50.618;7.024;2022-09-09T11:43:46;24.50;99.10
27164;DHT22;14685;50.618;7.024;2022-09-09T11:46:15;24.60;99.00
27164;DHT22;14685;50.618;7.024;2022-09-09T11:48:45;24.60;98.40
27164;DHT22;14685;50.618;7.024;2022-09-09T11:51:28;24.70;98.40
27164;DHT22;14685;50.618;7.024;2022-09-09T11:56:45;24.70;97.80
27164;DHT22;14685;50.618;7.024;2022-09-09T11:59:33;24.60;97.40
27164;DHT22;14685;50.618;7.024;2022-09-09T12:02:02;24.60;97.40
27164;DHT22;14685;50.618;7.024;2022-09-09T12:04:39;24.60;97.70
27164;DHT22;14685;50.618;7.024;2022-09-09T12:09:52;24.60;98.10
27164;DHT22;14685;50.618;7.024;2022-09-09T12:17:25;24.70;98.90
27164;DHT22;14685;50.618;7.024;2022-09-09T12:20:16;24.60;98.40
27164;DHT22;14685;50.618;7.024;2022-09-09T12:28:33;24.40;98.50
27164;DHT22;14685;50.618;7.024;2022-09-09T12:31:17;24.40;98.70
27164;DHT22;14685;50.618;7.024;2022-09-09T12:33:45;24.30;98.30
27164;DHT22;14685;50.618;7.024;2022-09-09T12:36:27;24.30;98.40
27164;DHT22;14685;50.618;7.024;2022-09-09T12:38:59;24.20;98.60
27164;DHT22;14685;50.618;7.024;2022-09-09T12:41:37;24.10;98.10
27164;DHT22;14685;50.618;7.024;2022-09-09T12:44:09;24.10;98.00
27164;DHT22;14685;50.618;7.024;2022-09-09T12:46:39;24.00;97.40
27164;DHT22;14685;50.618;7.024;2022-09-09T12:49:35;23.90;98.30
27164;DHT22;14685;50.618;7.024;2022-09-09T12:52:14;23.90;98.80
27164;DHT22;14685;50.618;7.024;2022-09-09T12:54:45;24.00;99.10
27164;DHT22;14685;50.618;7.024;2022-09-09T12:57:15;24.10;99.10
27164;DHT22;14685;50.618;7.024;2022-09-09T12:59:45;24.10;98.10
27164;DHT22;14685;50.618;7.024;2022-09-09T13:02:18;24.10;98.40
27164;DHT22;14685;50.618;7.024;2022-09-09T13:04:46;24.10;99.00
27164;DHT22;14685;50.618;7.024;2022-09-09T13:07:14;24.00;98.10
27164;DHT22;14685;50.618;7.024;2022-09-09T13:09:47;24.00;98.60
27164;DHT22;14685;50.618;7.024;2022-09-09T13:12:19;23.90;99.20
27164;DHT22;14685;50.618;7.024;2022-09-09T13:14:49;23.80;99.20
27164;DHT22;14685;50.618;7.024;2022-09-09T13:17:23;23.80;99.90
27164;DHT22;14685;50.618;7.024;2022-09-09T13:19:53;23.80;99.90
27164;DHT22;14685;50.618;7.024;2022-09-09T13:22:30;23.90;99.90
27164;DHT22;14685;50.618;7.024;2022-09-09T13:27:41;24.00;99.50
27164;DHT22;14685;50.618;7.024;2022-09-09T13:30:30;24.10;99.40
27164;DHT22;14685;50.618;7.024;2022-09-09T13:35:52;24.20;99.90
27164;DHT22;14685;50.618;7.024;2022-09-09T13:38:21;24.20;99.90
27164;DHT22;14685;50.618;7.024;2022-09-09T13:41:00;24.20;99.90
27164;DHT22;14685;50.618;7.024;2022-09-09T13:46:21;24.00;99.70
27164;DHT22;14685;50.618;7.024;2022-09-09T13:49:18;24.00;99.90
27164;DHT22;14685;50.618;7.024;2022-09-09T13:51:48;24.00;99.90
27164;DHT22;14685;50.618;7.024;2022-09-09T13:54:19;23.90;99.80
27164;DHT22;14685;50.618;7.024;2022-09-09T13:56:46;23.90;99.90
27164;DHT22;14685;50.618;7.024;2022-09-09T13:59:17;24.00;99.90
27164;DHT22;14685;50.618;7.024;2022-09-09T14:01:48;24.00;99.90
27164;DHT22;14685;50.618;7.024;2022-09-09T14:04:19;24.10;99.90
27164;DHT22;14685;50.618;7.024;2022-09-09T14:06:49;24.10;99.90
27164;DHT22;14685;50.618;7.024;2022-09-09T14:09:17;24.00;99.90
27164;DHT22;14685;50.618;7.024;2022-09-09T14:11:44;24.10;99.90
27164;DHT22;14685;50.618;7.024;2022-09-09T14:14:12;24.10;99.90
27164;DHT22;14685;50.618;7.024;2022-09-09T14:16:39;24.10;99.90
27164;DHT22;14685;50.618;7.024;2022-09-09T14:19:08;24.00;99.90
27164;DHT22;14685;50.618;7.024;2022-09-09T14:21:38;24.00;99.90
27164;DHT22;14685;50.618;7.024;2022-09-09T14:24:05;24.00;99.90
27164;DHT22;14685;50.618;7.024;2022-09-09T14:26:32;23.90;99.90
27164;DHT22;14685;50.618;7.024;2022-09-09T14:29:01;23.90;99.90
27164;DHT22;14685;50.618;7.024;2022-09-09T14:31:28;23.90;99.90
27164;DHT22;14685;50.618;7.024;2022-09-09T14:33:56;23.90;99.90
27164;DHT22;14685;50.618;7.024;2022-09-09T14:36:25;23.80;99.90
27164;DHT22;14685;50.618;7.024;2022-09-09T14:38:53;23.70;99.90
27164;DHT22;14685;50.618;7.024;2022-09-09T14:41:20;23.70;99.90
27164;DHT22;14685;50.618;7.024;2022-09-09T14:43:49;23.70;99.90
27164;DHT22;14685;50.618;7.024;2022-09-09T14:46:18;23.70;99.90
27164;DHT22;14685;50.618;7.024;2022-09-09T14:48:46;23.70;99.90
27164;DHT22;14685;50.618;7.024;2022-09-09T14:51:22;23.70;99.90
27164;DHT22;14685;50.618;7.024;2022-09-09T14:53:54;23.70;99.90
27164;DHT22;14685;50.618;7.024;2022-09-09T14:56:24;23.60;99.90
27164;DHT22;14685;50.618;7.024;2022-09-09T14:58:55;23.60;99.90
27164;DHT22;14685;50.618;7.024;2022-09-09T15:01:23;23.50;99.90
27164;DHT22;14685;50.618;7.024;2022-09-09T15:04:04;23.40;99.90
27164;DHT22;14685;50.618;7.024;2022-09-09T15:06:35;23.50;99.90
27164;DHT22;14685;50.618;7.024;2022-09-09T15:09:05;23.50;99.90
27164;DHT22;14685;50.618;7.024;2022-09-09T15:11:35;23.40;99.90
27164;DHT22;14685;50.618;7.024;2022-09-09T15:14:05;23.50;99.90
27164;DHT22;14685;50.618;7.024;2022-09-09T15:16:33;23.50;99.90
27164;DHT22;14685;50.618;7.024;2022-09-09T15:19:01;23.50;99.90
27164;DHT22;14685;50.618;7.024;2022-09-09T15:21:34;23.50;99.90
27164;DHT22;14685;50.618;7.024;2022-09-09T15:24:03;23.50;99.90
27164;DHT22;14685;50.618;7.024;2022-09-09T15:26:31;23.40;99.90
27164;DHT22;14685;50.618;7.024;2022-09-09T15:28:58;23.30;99.90
27164;DHT22;14685;50.618;7.024;2022-09-09T15:31:31;23.30;99.90
27164;DHT22;14685;50.618;7.024;2022-09-09T15:34:04;23.30;99.90
27164;DHT22;14685;50.618;7.024;2022-09-09T15:36:40;23.30;99.90
27164;DHT22;14685;50.618;7.024;2022-09-09T15:39:11;23.30;99.90
27164;DHT22;14685;50.618;7.024;2022-09-09T15:41:40;23.30;99.90
27164;DHT22;14685;50.618;7.024;2022-09-09T15:44:09;23.40;99.90
27164;DHT22;14685;50.618;7.024;2022-09-09T15:46:49;23.30;99.90
27164;DHT22;14685;50.618;7.024;2022-09-09T15:49:25;23.30;99.90
27164;DHT22;14685;50.618;7.024;2022-09-09T15:51:56;23.20;99.90
27164;DHT22;14685;50.618;7.024;2022-09-09T15:54:25;23.20;99.90
27164;DHT22;14685;50.618;7.024;2022-09-09T15:56:55;23.10;99.90
27164;DHT22;14685;50.618;7.024;2022-09-09T15:59:23;23.10;99.90
27164;DHT22;14685;50.618;7.024;2022-09-09T16:01:50;23.10;99.90
27164;DHT22;14685;50.618;7.024;2022-09-09T16:04:20;23.10;99.90
27164;DHT22;14685;50.618;7.024;2022-09-09T16:06:57;23.00;99.90
27164;DHT22;14685;50.618;7.024;2022-09-09T16:09:25;23.00;99.90
27164;DHT22;14685;50.618;7.024;2022-09-09T16:11:56;22.90;99.90
27164;DHT22;14685;50.618;7.024;2022-09-09T16:14:23;22.90;99.90
27164;DHT22;14685;50.618;7.024;2022-09-09T16:16:53;22.90;99.90
27164;DHT22;14685;50.618;7.024;2022-09-09T16:19:24;22.80;99.90
27164;DHT22;14685;50.618;7.024;2022-09-09T16:21:52;22.80;99.90
27164;DHT22;14685;50.618;7.024;2022-09-09T16:24:20;22.80;99.90
27164;DHT22;14685;50.618;7.024;2022-09-09T16:26:49;22.70;99.90
27164;DHT22;14685;50.618;7.024;2022-09-09T16:29:17;22.70;99.90
27164;DHT22;14685;50.618;7.024;2022-09-09T16:31:48;22.60;99.90
27164;DHT22;14685;50.618;7.024;2022-09-09T16:34:17;22.50;99.90
27164;DHT22;14685;50.618;7.024;2022-09-09T16:36:45;22.50;99.90
27164;DHT22;14685;50.618;7.024;2022-09-09T16:39:19;22.50;99.90
27164;DHT22;14685;50.618;7.024;2022-09-09T16:41:47;22.50;99.90
27164;DHT22;14685;50.618;7.024;2022-09-09T16:44:16;22.50;99.90
27164;DHT22;14685;50.618;7.024;2022-09-09T16:46:46;22.40;99.90
27164;DHT22;14685;50.618;7.024;2022-09-09T16:49:15;22.40;99.90
27164;DHT22;14685;50.618;7.024;2022-09-09T16:51:44;22.40;99.90
27164;DHT22;14685;50.618;7.024;2022-09-09T16:54:13;22.30;99.90
27164;DHT22;14685;50.618;7.024;2022-09-09T16:56:43;22.30;99.90
27164;DHT22;14685;50.618;7.024;2022-09-09T16:59:14;22.20;99.90
27164;DHT22;14685;50.618;7.024;2022-09-09T17:01:42;22.20;99.90
27164;DHT22;14685;50.618;7.024;2022-09-09T17:04:12;22.20;99.90
27164;DHT22;14685;50.618;7.024;2022-09-09T17:06:40;22.10;99.90
27164;DHT22;14685;50.618;7.024;2022-09-09T17:09:10;22.10;99.90
27164;DHT22;14685;50.618;7.024;2022-09-09T17:11:39;22.10;99.90
27164;DHT22;14685;50.618;7.024;2022-09-09T17:14:10;22.10;99.90
27164;DHT22;14685;50.618;7.024;2022-09-09T17:16:37;22.10;99.90
27164;DHT22;14685;50.618;7.024;2022-09-09T17:19:06;22.00;99.90
27164;DHT22;14685;50.618;7.024;2022-09-09T17:21:35;22.00;99.90
27164;DHT22;14685;50.618;7.024;2022-09-09T17:24:20;22.00;99.90
27164;DHT22;14685;50.618;7.024;2022-09-09T17:26:48;22.00;99.90
27164;DHT22;14685;50.618;7.024;2022-09-09T17:29:15;21.90;99.90
27164;DHT22;14685;50.618;7.024;2022-09-09T17:31:43;21.90;99.90
27164;DHT22;14685;50.618;7.024;2022-09-09T17:34:12;21.90;99.90
27164;DHT22;14685;50.618;7.024;2022-09-09T17:36:39;21.80;99.90
27164;DHT22;14685;50.618;7.024;2022-09-09T17:39:06;21.80;99.90
27164;DHT22;14685;50.618;7.024;2022-09-09T17:41:37;21.80;99.90
27164;DHT22;14685;50.618;7.024;2022-09-09T17:44:05;21.70;99.90
27164;DHT22;14685;50.618;7.024;2022-09-09T17:46:35;21.70;99.90
27164;DHT22;14685;50.618;7.024;2022-09-09T17:49:05;21.60;99.90
27164;DHT22;14685;50.618;7.024;2022-09-09T17:51:34;21.60;99.90
27164;DHT22;14685;50.618;7.024;2022-09-09T17:54:04;21.60;99.90
27164;DHT22;14685;50.618;7.024;2022-09-09T17:56:32;21.50;99.90